createdAt,value
2023-01-26T00:02:26.544Z,4.83
2023-01-26T00:04:54.592Z,3.10
2023-01-26T00:07:22.581Z,2.37
2023-01-26T00:09:50.558Z,2.10
2023-01-26T00:12:18.603Z,2.13
2023-01-26T00:14:50.731Z,1.73
2023-01-26T00:17:26.728Z,6.20
2023-01-26T00:19:56.719Z,3.00
2023-01-26T00:22:27.293Z,2.77
2023-01-26T00:24:55.245Z,4.97
2023-01-26T00:27:23.253Z,2.50
2023-01-26T00:29:52.715Z,6.33
2023-01-26T00:32:20.780Z,2.27
2023-01-26T00:34:48.872Z,4.93
2023-01-26T00:37:17.026Z,3.70
2023-01-26T00:39:45.100Z,2.43
2023-01-26T00:42:14.296Z,4.47
2023-01-26T00:44:44.185Z,2.40
2023-01-26T00:47:15.086Z,1.87
2023-01-26T00:49:43.782Z,3.07
2023-01-26T00:52:13.662Z,3.00
2023-01-26T00:54:41.792Z,2.93
2023-01-26T00:57:10.046Z,1.80
2023-01-26T00:59:38.134Z,3.03
2023-01-26T01:02:06.142Z,2.10
2023-01-26T01:04:35.509Z,2.03
2023-01-26T01:07:03.505Z,3.87
2023-01-26T01:09:31.590Z,2.30
2023-01-26T01:11:59.660Z,2.10
2023-01-26T01:14:27.714Z,2.13
2023-01-26T01:16:55.762Z,2.40
2023-01-26T01:19:23.939Z,4.40
2023-01-26T01:21:53.281Z,3.40
2023-01-26T01:24:21.392Z,2.80
2023-01-26T01:26:49.432Z,1.83
2023-01-26T01:29:17.480Z,4.53
2023-01-26T01:31:45.591Z,1.80
2023-01-26T01:34:13.581Z,2.73
2023-01-26T01:36:42.629Z,2.50
2023-01-26T01:39:13.105Z,4.67
2023-01-26T01:41:41.111Z,3.23
2023-01-26T01:44:21.468Z,4.43
2023-01-26T01:46:55.169Z,4.30
2023-01-26T01:49:28.207Z,7.10
2023-01-26T01:56:00.327Z,4.50
2023-01-26T01:58:30.854Z,6.67
2023-01-26T02:00:59.880Z,2.53
2023-01-26T02:03:29.720Z,2.40
2023-01-26T02:06:03.548Z,2.23
2023-01-26T02:08:37.942Z,5.10
2023-01-26T02:11:12.375Z,2.00
2023-01-26T02:13:42.606Z,1.90
2023-01-26T02:16:10.731Z,2.40
2023-01-26T02:18:39.021Z,4.80
2023-01-26T02:21:10.089Z,2.73
2023-01-26T02:23:51.377Z,5.00
2023-01-26T02:26:24.153Z,3.60
2023-01-26T02:28:52.522Z,6.20
2023-01-26T02:31:21.084Z,2.90
2023-01-26T02:33:49.169Z,4.93
2023-01-26T02:36:22.713Z,2.67
2023-01-26T02:38:59.855Z,3.53
2023-01-26T02:41:46.544Z,3.50
2023-01-26T02:44:15.163Z,3.77
2023-01-26T02:46:43.317Z,4.60
2023-01-26T02:49:29.080Z,4.40
2023-01-26T02:51:57.027Z,3.83
2023-01-26T02:54:42.617Z,5.03
2023-01-26T02:57:11.958Z,5.70
2023-01-26T02:59:39.890Z,4.53
2023-01-26T03:02:08.337Z,7.10
2023-01-26T03:04:36.378Z,4.63
2023-01-26T03:07:04.380Z,4.17
2023-01-26T03:09:32.401Z,6.20
2023-01-26T03:12:00.407Z,5.47
2023-01-26T03:14:29.823Z,7.17
2023-01-26T03:16:57.817Z,3.90
2023-01-26T03:19:43.499Z,3.47
2023-01-26T03:22:30.112Z,5.97
2023-01-26T03:25:15.591Z,7.90
2023-01-26T03:27:46.278Z,5.23
2023-01-26T03:30:18.608Z,7.17
2023-01-26T03:32:46.973Z,5.67
2023-01-26T03:35:16.098Z,7.97
2023-01-26T03:37:45.352Z,6.13
2023-01-26T03:40:33.037Z,5.97
2023-01-26T03:43:26.172Z,4.13
2023-01-26T03:46:13.289Z,2.60
2023-01-26T03:48:58.748Z,2.83
2023-01-26T03:51:44.087Z,7.90
2023-01-26T03:54:31.576Z,2.93
2023-01-26T03:56:59.537Z,4.20
2023-01-26T03:59:38.716Z,4.13
2023-01-26T04:02:27.295Z,6.50
2023-01-26T04:05:13.627Z,3.63
2023-01-26T04:07:59.327Z,5.70
2023-01-26T04:10:28.009Z,4.63
2023-01-26T04:13:13.487Z,9.13
2023-01-26T04:15:58.884Z,8.90
2023-01-26T04:18:46.184Z,3.87
2023-01-26T04:21:30.049Z,4.53
2023-01-26T04:23:59.824Z,6.80
2023-01-26T04:26:34.647Z,6.20
2023-01-26T04:29:03.383Z,5.67
2023-01-26T04:31:31.841Z,7.00
2023-01-26T04:34:02.563Z,6.97
2023-01-26T04:36:31.392Z,4.80
2023-01-26T04:39:00.050Z,6.70
2023-01-26T04:41:29.942Z,5.80
2023-01-26T04:43:58.089Z,5.33
2023-01-26T04:46:26.480Z,6.57
2023-01-26T04:48:54.771Z,13.60
2023-01-26T04:51:25.087Z,4.57
2023-01-26T04:53:53.193Z,10.10
2023-01-26T04:56:25.199Z,5.30
2023-01-26T04:58:53.994Z,5.17
2023-01-26T05:01:22.588Z,9.13
2023-01-26T05:03:50.767Z,5.70
2023-01-26T05:06:18.717Z,7.30
2023-01-26T05:08:48.133Z,6.90
2023-01-26T05:11:16.183Z,14.13
2023-01-26T05:13:44.237Z,8.10
2023-01-26T05:16:13.986Z,7.33
2023-01-26T05:18:45.354Z,6.43
2023-01-26T05:21:13.328Z,7.93
2023-01-26T05:23:41.364Z,9.20
2023-01-26T05:26:11.155Z,4.70
2023-01-26T05:28:39.179Z,6.77
2023-01-26T05:31:07.216Z,7.97
2023-01-26T05:33:35.267Z,7.47
2023-01-26T05:36:10.101Z,5.00
2023-01-26T05:38:38.067Z,10.90
2023-01-26T05:41:08.456Z,11.40
2023-01-26T05:43:37.833Z,5.70
2023-01-26T05:46:06.774Z,6.97
2023-01-26T05:48:34.779Z,8.07
2023-01-26T05:51:04.010Z,9.30
2023-01-26T05:53:32.119Z,12.00
2023-01-26T05:56:00.117Z,7.27
2023-01-26T05:58:28.129Z,12.47
2023-01-26T06:00:57.445Z,8.07
2023-01-26T06:03:25.527Z,11.63
2023-01-26T06:05:56.508Z,10.50
2023-01-26T06:08:24.562Z,9.10
2023-01-26T06:10:52.526Z,7.10
2023-01-26T06:13:20.485Z,11.13
2023-01-26T06:15:48.471Z,8.87
2023-01-26T06:18:17.766Z,11.60
2023-01-26T06:20:45.733Z,6.80
2023-01-26T06:23:13.806Z,9.17
2023-01-26T06:25:44.861Z,12.13
2023-01-26T06:28:12.881Z,11.13
2023-01-26T06:30:41.711Z,9.03
2023-01-26T06:33:09.823Z,12.50
2023-01-26T06:35:39.214Z,10.33
2023-01-26T06:38:07.203Z,9.67
2023-01-26T06:40:35.211Z,14.57
2023-01-26T06:43:03.154Z,11.10
2023-01-26T06:45:31.134Z,17.10
2023-01-26T06:47:59.184Z,10.23
2023-01-26T06:50:32.945Z,10.37
2023-01-26T06:53:05.830Z,10.87
2023-01-26T06:55:38.512Z,9.20
2023-01-26T06:58:06.563Z,11.50
2023-01-26T07:00:34.601Z,8.73
2023-01-26T07:03:02.821Z,10.03
2023-01-26T07:05:30.789Z,14.67
2023-01-26T07:08:00.346Z,8.97
2023-01-26T07:10:29.727Z,9.90
2023-01-26T07:12:57.733Z,7.93
2023-01-26T07:15:25.720Z,16.20
2023-01-26T07:17:54.517Z,10.47
2023-01-26T07:20:22.510Z,10.43
2023-01-26T07:22:50.939Z,16.27
2023-01-26T07:25:19.124Z,13.13
2023-01-26T07:27:48.462Z,11.10
2023-01-26T07:30:17.503Z,14.47
2023-01-26T07:32:45.455Z,12.67
2023-01-26T07:35:13.374Z,11.00
2023-01-26T07:37:41.367Z,18.07
2023-01-26T07:40:13.017Z,14.80
2023-01-26T07:42:41.256Z,21.07
2023-01-26T07:45:11.781Z,14.73
2023-01-26T07:47:39.847Z,18.20
2023-01-26T07:50:09.022Z,17.00
2023-01-26T07:52:37.160Z,11.77
2023-01-26T07:55:06.555Z,18.73
2023-01-26T07:57:34.809Z,11.90
2023-01-26T08:00:04.071Z,13.63
2023-01-26T08:02:33.544Z,16.37
2023-01-26T08:05:02.788Z,16.30
2023-01-26T08:07:30.792Z,20.10
2023-01-26T08:09:59.023Z,16.97
2023-01-26T08:12:27.074Z,19.63
2023-01-26T08:14:55.086Z,28.37
2023-01-26T08:17:23.085Z,20.60
2023-01-26T08:19:52.464Z,14.80
2023-01-26T08:22:20.450Z,16.47
2023-01-26T08:24:48.495Z,11.50
2023-01-26T08:27:17.208Z,38.67
2023-01-26T08:29:45.221Z,22.10
2023-01-26T08:32:13.253Z,16.33
2023-01-26T08:34:41.320Z,29.03
2023-01-26T08:37:10.791Z,18.13
2023-01-26T08:39:38.863Z,18.73
2023-01-26T08:42:06.896Z,17.90
2023-01-26T08:44:34.946Z,19.10
2023-01-26T08:47:02.933Z,16.10
2023-01-26T08:49:30.917Z,19.73
2023-01-26T08:51:58.922Z,19.90
2023-01-26T08:54:29.741Z,26.00
2023-01-26T08:56:59.233Z,15.47
2023-01-26T08:59:27.233Z,17.63
2023-01-26T09:01:55.788Z,18.37
2023-01-26T09:04:23.816Z,19.70
2023-01-26T09:06:51.872Z,20.40
2023-01-26T09:09:19.909Z,23.63
2023-01-26T09:11:51.560Z,21.27
2023-01-26T09:14:19.622Z,16.13
2023-01-26T09:16:47.709Z,22.73
2023-01-26T09:19:15.753Z,25.50
2023-01-26T09:21:43.813Z,22.77
2023-01-26T09:24:11.869Z,23.57
2023-01-26T09:26:40.032Z,24.93
2023-01-26T09:29:09.413Z,21.60
2023-01-26T09:31:37.557Z,24.73
2023-01-26T09:34:05.664Z,28.13
2023-01-26T09:36:34.292Z,16.70
2023-01-26T09:39:02.367Z,20.50
2023-01-26T09:41:53.241Z,20.70
2023-01-26T09:44:26.354Z,24.67
2023-01-26T09:47:07.200Z,30.23
2023-01-26T09:49:47.683Z,17.80
2023-01-26T09:52:25.447Z,19.93
2023-01-26T09:54:56.071Z,20.20
2023-01-26T09:57:30.275Z,25.50
2023-01-26T10:00:07.216Z,22.17
2023-01-26T10:02:54.633Z,19.87
2023-01-26T10:05:34.964Z,24.30
2023-01-26T10:08:05.241Z,25.93
2023-01-26T10:10:38.705Z,25.87
2023-01-26T10:13:06.931Z,21.93
2023-01-26T10:15:39.894Z,23.10
2023-01-26T10:18:13.248Z,25.17
2023-01-26T10:20:46.567Z,21.50
2023-01-26T10:23:19.047Z,18.37
2023-01-26T10:25:47.864Z,18.83
2023-01-26T10:28:17.793Z,17.50
2023-01-26T10:30:51.266Z,19.20
2023-01-26T10:33:26.504Z,20.57
2023-01-26T10:35:54.803Z,19.90
2023-01-26T10:38:43.984Z,23.30
2023-01-26T10:41:28.502Z,15.03
2023-01-26T10:43:59.318Z,11.73
2023-01-26T10:46:38.655Z,10.57
2023-01-26T10:49:17.459Z,17.53
2023-01-26T10:51:47.787Z,14.90
2023-01-26T10:54:24.916Z,12.13
2023-01-26T10:56:56.681Z,11.17
2023-01-26T10:59:31.059Z,13.20
2023-01-26T11:02:03.760Z,11.13
2023-01-26T11:04:31.986Z,11.80
2023-01-26T11:07:26.467Z,8.10
2023-01-26T11:09:54.999Z,7.00
2023-01-26T11:12:26.260Z,6.40
2023-01-26T11:15:15.885Z,5.87
2023-01-26T11:17:57.864Z,7.83
2023-01-26T11:20:48.900Z,5.70
2023-01-26T11:23:41.291Z,3.40
2023-01-26T11:26:44.763Z,6.17
2023-01-26T11:29:46.802Z,7.37
2023-01-26T11:32:24.114Z,6.63
2023-01-26T11:35:10.203Z,5.33
2023-01-26T11:37:45.938Z,5.27
2023-01-26T11:40:26.572Z,11.07
2023-01-26T11:43:33.680Z,9.40
2023-01-26T11:46:12.903Z,4.27
2023-01-26T11:48:56.126Z,8.23
2023-01-26T11:51:40.677Z,7.43
2023-01-26T11:54:32.133Z,5.27
2023-01-26T11:57:13.816Z,5.90
2023-01-26T11:59:47.696Z,9.43
2023-01-26T12:02:30.421Z,14.40
2023-01-26T12:05:05.947Z,8.27
2023-01-26T12:07:54.419Z,9.97
2023-01-26T12:10:29.142Z,6.23
2023-01-26T12:13:04.739Z,7.10
2023-01-26T12:15:38.369Z,12.60
2023-01-26T12:18:16.377Z,6.10
2023-01-26T12:20:47.779Z,9.30
2023-01-26T12:23:29.478Z,7.93
2023-01-26T12:26:02.132Z,8.30
2023-01-26T12:28:36.038Z,8.37
2023-01-26T12:31:14.329Z,12.30
2023-01-26T12:33:43.211Z,11.50
2023-01-26T12:36:29.355Z,6.80
2023-01-26T12:39:11.672Z,6.93
2023-01-26T12:42:00.780Z,7.80
2023-01-26T12:44:40.099Z,6.37
2023-01-26T12:47:15.884Z,5.87
2023-01-26T12:49:51.032Z,8.80
2023-01-26T12:52:26.096Z,7.90
2023-01-26T12:55:01.009Z,11.30
2023-01-26T12:57:37.784Z,8.90
2023-01-26T13:00:19.987Z,10.17
2023-01-26T13:02:52.547Z,8.00
2023-01-26T13:05:30.213Z,9.23
2023-01-26T13:07:59.172Z,7.80
2023-01-26T13:10:45.766Z,18.73
2023-01-26T13:13:32.865Z,8.77
2023-01-26T13:16:33.521Z,8.80
2023-01-26T13:19:06.269Z,12.00
2023-01-26T13:21:48.342Z,9.27
2023-01-26T13:24:44.121Z,10.80
2023-01-26T13:27:31.005Z,9.23
2023-01-26T13:30:00.065Z,9.30
2023-01-26T13:32:53.488Z,9.00
2023-01-26T13:35:24.497Z,9.90
2023-01-26T13:38:00.384Z,5.90
2023-01-26T13:40:33.269Z,7.97
2023-01-26T13:43:24.600Z,8.13
2023-01-26T13:46:12.424Z,10.90
2023-01-26T13:48:49.336Z,7.63
2023-01-26T13:51:21.225Z,6.67
2023-01-26T13:54:01.307Z,11.47
2023-01-26T13:56:33.267Z,10.37
2023-01-26T13:59:12.587Z,10.97
2023-01-26T14:01:46.435Z,10.93
2023-01-26T14:04:19.492Z,11.63
2023-01-26T14:06:54.094Z,16.43
2023-01-26T14:09:22.211Z,15.00
2023-01-26T14:11:59.393Z,12.80
2023-01-26T14:14:31.388Z,11.07
2023-01-26T14:17:00.476Z,14.50
2023-01-26T14:19:29.725Z,14.40
2023-01-26T14:22:01.202Z,9.70
2023-01-26T14:24:35.585Z,10.10
2023-01-26T14:27:04.780Z,9.30
2023-01-26T14:29:40.351Z,13.43
2023-01-26T14:32:16.826Z,16.83
2023-01-26T14:34:54.237Z,11.10
2023-01-26T14:37:22.849Z,10.30
2023-01-26T14:40:11.156Z,17.10
2023-01-26T14:42:41.235Z,17.47
2023-01-26T14:45:14.187Z,13.80
2023-01-26T14:47:42.926Z,19.67
2023-01-26T14:50:17.636Z,18.27
2023-01-26T14:52:47.005Z,16.77
2023-01-26T14:55:27.070Z,12.30
2023-01-26T14:57:55.584Z,15.17
2023-01-26T15:00:31.568Z,13.10
2023-01-26T15:03:03.205Z,15.30
2023-01-26T15:05:36.860Z,16.83
2023-01-26T15:08:06.796Z,13.23
2023-01-26T15:10:42.108Z,19.27
2023-01-26T15:13:23.142Z,15.63
2023-01-26T15:16:07.535Z,18.43
2023-01-26T15:18:36.162Z,18.23
2023-01-26T15:21:15.962Z,13.93
2023-01-26T15:23:46.553Z,19.97
2023-01-26T15:26:22.756Z,18.57
2023-01-26T15:28:53.415Z,15.00
2023-01-26T15:31:31.593Z,17.80
2023-01-26T15:34:01.499Z,15.97
2023-01-26T15:36:47.828Z,20.60
2023-01-26T15:39:18.183Z,16.77
2023-01-26T15:41:48.832Z,27.13
2023-01-26T15:44:19.187Z,25.73
2023-01-26T15:46:48.734Z,15.90
2023-01-26T15:49:19.911Z,20.77
2023-01-26T15:51:47.960Z,23.97
2023-01-26T15:54:16.299Z,18.77
2023-01-26T15:56:44.545Z,17.93
2023-01-26T15:59:12.602Z,28.43
2023-01-26T16:01:40.706Z,23.97
2023-01-26T16:04:14.193Z,22.20
2023-01-26T16:06:42.478Z,20.30
2023-01-26T16:09:10.539Z,24.23
2023-01-26T16:11:42.948Z,28.77
2023-01-26T16:14:13.572Z,33.93
2023-01-26T16:16:41.938Z,18.63
2023-01-26T16:19:11.356Z,26.40
2023-01-26T16:21:41.098Z,22.93
2023-01-26T16:24:12.163Z,28.07
2023-01-26T16:26:40.187Z,16.97
2023-01-26T16:29:08.251Z,27.27
2023-01-26T16:31:36.836Z,15.20
2023-01-26T16:34:05.168Z,22.40
2023-01-26T16:36:34.635Z,22.10
2023-01-26T16:39:02.663Z,22.40
2023-01-26T16:41:33.132Z,20.80
2023-01-26T16:44:02.921Z,20.40
2023-01-26T16:46:31.986Z,18.77
2023-01-26T16:49:00.211Z,26.07
2023-01-26T16:51:31.323Z,19.40
2023-01-26T16:54:00.692Z,23.93
2023-01-26T16:56:29.025Z,20.03
2023-01-26T16:58:57.041Z,32.87
2023-01-26T17:01:28.777Z,20.50
2023-01-26T17:03:57.541Z,19.83
2023-01-26T17:06:25.892Z,18.70
2023-01-26T17:08:53.881Z,31.10
2023-01-26T17:11:27.789Z,27.07
2023-01-26T17:13:56.900Z,57.13
2023-01-26T17:16:29.356Z,38.70
2023-01-26T17:18:57.805Z,29.27
2023-01-26T17:21:26.704Z,38.03
2023-01-26T17:23:56.593Z,21.37
2023-01-26T17:26:26.312Z,60.97
2023-01-26T17:28:56.282Z,43.13
2023-01-26T17:31:25.681Z,42.10
2023-01-26T17:33:53.864Z,25.97
2023-01-26T17:36:22.332Z,25.77
2023-01-26T17:38:50.943Z,36.00
2023-01-26T17:41:19.033Z,28.60
2023-01-26T17:43:49.032Z,30.23
2023-01-26T17:46:18.965Z,19.73
2023-01-26T17:48:48.047Z,26.67
2023-01-26T17:51:18.945Z,25.03
2023-01-26T17:53:50.134Z,18.37
2023-01-26T17:56:20.577Z,19.27
2023-01-26T17:58:51.413Z,27.00
2023-01-26T18:01:22.495Z,22.20
2023-01-26T18:03:50.875Z,23.33
2023-01-26T18:06:19.047Z,30.50
2023-01-26T18:08:47.055Z,30.13
2023-01-26T18:11:16.690Z,32.20
2023-01-26T18:13:45.097Z,27.90
2023-01-26T18:16:18.568Z,25.67
2023-01-26T18:18:47.772Z,21.07
2023-01-26T18:21:18.791Z,25.30
2023-01-26T18:23:50.757Z,22.37
2023-01-26T18:26:20.961Z,26.23
2023-01-26T18:28:49.194Z,22.00
2023-01-26T18:31:20.937Z,35.67
2023-01-26T18:33:49.206Z,30.37
2023-01-26T18:36:19.533Z,32.30
2023-01-26T18:38:52.299Z,29.83
2023-01-26T18:41:22.553Z,27.90
2023-01-26T18:43:52.326Z,35.13
2023-01-26T18:46:22.965Z,25.93
2023-01-26T18:48:53.915Z,25.03
2023-01-26T18:51:22.583Z,26.50
2023-01-26T18:53:50.627Z,33.30
2023-01-26T18:56:18.796Z,23.63
2023-01-26T18:58:46.842Z,26.90
2023-01-26T19:01:18.672Z,38.70
2023-01-26T19:03:53.946Z,33.53
2023-01-26T19:06:23.948Z,31.77
2023-01-26T19:08:58.695Z,41.17
2023-01-26T19:11:28.515Z,31.23
2023-01-26T19:13:56.615Z,27.63
2023-01-26T19:16:24.993Z,24.33
2023-01-26T19:18:55.421Z,40.57
2023-01-26T19:21:25.175Z,33.30
2023-01-26T19:23:55.638Z,31.50
2023-01-26T19:26:27.719Z,33.50
2023-01-26T19:28:56.532Z,36.23
2023-01-26T19:31:26.940Z,32.83
2023-01-26T19:33:58.511Z,27.30
2023-01-26T19:36:28.713Z,37.60
2023-01-26T19:38:57.182Z,31.93
2023-01-26T19:41:26.261Z,31.73
2023-01-26T19:43:54.501Z,41.53
2023-01-26T19:46:23.196Z,38.23
2023-01-26T19:48:51.328Z,40.87
2023-01-26T19:51:22.803Z,26.83
2023-01-26T19:53:54.892Z,39.50
2023-01-26T19:56:25.790Z,34.50
2023-01-26T19:58:55.973Z,41.47
2023-01-26T20:01:25.759Z,35.67
2023-01-26T20:03:58.795Z,43.73
2023-01-26T20:06:31.326Z,32.80
2023-01-26T20:09:01.076Z,39.23
2023-01-26T20:11:29.798Z,33.40
2023-01-26T20:13:59.109Z,30.93
2023-01-26T20:16:28.933Z,27.27
2023-01-26T20:18:57.723Z,38.40
2023-01-26T20:21:26.436Z,35.27
2023-01-26T20:23:56.456Z,46.67
2023-01-26T20:26:26.047Z,38.97
2023-01-26T20:28:58.010Z,33.50
2023-01-26T20:31:28.178Z,39.70
2023-01-26T20:33:58.151Z,34.50
2023-01-26T20:36:29.245Z,29.97
2023-01-26T20:38:58.798Z,33.70
2023-01-26T20:41:30.193Z,28.10
2023-01-26T20:44:01.861Z,35.47
2023-01-26T20:46:33.456Z,47.40
2023-01-26T20:49:04.029Z,34.90
2023-01-26T20:51:35.818Z,32.37
2023-01-26T20:54:07.511Z,43.60
2023-01-26T20:56:36.465Z,29.87
2023-01-26T20:59:05.530Z,37.87
2023-01-26T21:01:34.920Z,40.90
2023-01-26T21:04:03.421Z,25.33
2023-01-26T21:06:32.477Z,41.60
2023-01-26T21:09:01.448Z,31.27
2023-01-26T21:11:32.490Z,28.13
2023-01-26T21:14:02.559Z,37.13
2023-01-26T21:16:32.014Z,27.87
2023-01-26T21:19:00.227Z,30.93
2023-01-26T21:21:28.589Z,30.30
2023-01-26T21:23:56.989Z,29.73
2023-01-26T21:26:27.782Z,27.33
2023-01-26T21:28:59.636Z,35.20
2023-01-26T21:31:30.980Z,22.07
2023-01-26T21:34:00.028Z,26.23
2023-01-26T21:36:31.018Z,27.10
2023-01-26T21:39:01.455Z,23.73
2023-01-26T21:41:48.810Z,25.67
2023-01-26T21:44:20.576Z,30.00
2023-01-26T21:46:52.133Z,31.80
2023-01-26T21:49:20.264Z,26.07
2023-01-26T21:52:05.840Z,26.13
2023-01-26T21:54:34.416Z,28.67
2023-01-26T21:57:04.501Z,33.03
2023-01-26T21:59:32.853Z,32.03
2023-01-26T22:02:01.142Z,35.13
2023-01-26T22:04:31.353Z,44.37
2023-01-26T22:06:59.739Z,21.80
2023-01-26T22:09:28.316Z,22.87
2023-01-26T22:11:56.297Z,25.07
2023-01-26T22:14:26.049Z,28.57
2023-01-26T22:16:55.535Z,29.73
2023-01-26T22:19:25.886Z,28.90
2023-01-26T22:21:54.032Z,29.10
2023-01-26T22:24:22.066Z,32.60
2023-01-26T22:26:50.435Z,26.87
2023-01-26T22:29:18.503Z,20.60
2023-01-26T22:31:46.730Z,31.57
2023-01-26T22:34:16.118Z,22.53
2023-01-26T22:36:44.376Z,27.87
2023-01-26T22:39:13.145Z,30.53
2023-01-26T22:41:44.352Z,28.30
2023-01-26T22:44:12.376Z,30.17
2023-01-26T22:46:40.472Z,26.13
2023-01-26T22:49:08.634Z,18.37
2023-01-26T22:51:38.088Z,30.23
2023-01-26T22:54:06.774Z,22.23
2023-01-26T22:56:35.056Z,20.43
2023-01-26T22:59:03.487Z,31.87
2023-01-26T23:01:33.603Z,38.10
2023-01-26T23:04:02.770Z,36.77
2023-01-26T23:06:31.332Z,30.77
2023-01-26T23:09:04.451Z,22.90
2023-01-26T23:11:32.690Z,27.07
2023-01-26T23:14:01.549Z,23.57
2023-01-26T23:16:30.469Z,28.33
2023-01-26T23:18:59.855Z,25.13
2023-01-26T23:21:29.843Z,31.80
2023-01-26T23:23:59.619Z,22.50
2023-01-26T23:26:27.765Z,24.73
2023-01-26T23:28:55.822Z,26.23
2023-01-26T23:31:26.866Z,24.60
2023-01-26T23:33:54.815Z,31.37
2023-01-26T23:36:24.184Z,34.17
2023-01-26T23:38:52.627Z,24.70
2023-01-26T23:41:22.009Z,24.53
2023-01-26T23:43:49.958Z,25.80
2023-01-26T23:46:18.185Z,29.87
2023-01-26T23:48:46.240Z,21.80
2023-01-26T23:51:14.539Z,27.93
2023-01-26T23:53:42.809Z,29.97
2023-01-26T23:56:14.726Z,40.50
2023-01-26T23:58:44.276Z,30.13
